sensor_id;sensor_type;location;lat;lon;timestamp;pressure;altitude;pressure_sealevel;temperature;humidity
25855;BME280;13680;49.936;11.344;2022-07-29T00:01:47;96710.75;;;20.52;43.38
25855;BME280;13680;49.936;11.344;2022-07-29T00:04:12;96703.28;;;20.72;42.19
25855;BME280;13680;49.936;11.344;2022-07-29T00:06:38;96695.94;;;20.76;42.36
25855;BME280;13680;49.936;11.344;2022-07-29T00:09:04;96696.38;;;20.82;41.85
25855;BME280;13680;49.936;11.344;2022-07-29T00:11:29;96693.34;;;20.87;41.92
25855;BME280;13680;49.936;11.344;2022-07-29T00:13:54;96684.94;;;20.99;41.71
25855;BME280;13680;49.936;11.344;2022-07-29T00:16:20;96680.22;;;20.96;41.32
25855;BME280;13680;49.936;11.344;2022-07-29T00:18:45;96678.34;;;21.04;40.99
25855;BME280;13680;49.936;11.344;2022-07-29T00:21:10;96673.78;;;21.12;40.82
25855;BME280;13680;49.936;11.344;2022-07-29T00:23:36;96675.75;;;21.15;41.12
25855;BME280;13680;49.936;11.344;2022-07-29T00:26:01;96670.84;;;21.28;40.93
25855;BME280;13680;49.936;11.344;2022-07-29T00:28:26;96668.75;;;21.17;40.96
25855;BME280;13680;49.936;11.344;2022-07-29T00:30:52;96671.50;;;21.17;40.97
25855;BME280;13680;49.936;11.344;2022-07-29T00:33:17;96671.81;;;21.12;40.70
25855;BME280;13680;49.936;11.344;2022-07-29T00:35:43;96671.38;;;21.06;40.64
25855;BME280;13680;49.936;11.344;2022-07-29T00:38:16;96664.91;;;21.22;40.21
25855;BME280;13680;49.936;11.344;2022-07-29T00:40:42;96669.56;;;21.18;40.46
25855;BME280;13680;49.936;11.344;2022-07-29T00:43:08;96661.91;;;21.34;40.02
25855;BME280;13680;49.936;11.344;2022-07-29T00:45:34;96660.38;;;21.33;39.83
25855;BME280;13680;49.936;11.344;2022-07-29T00:47:59;96656.00;;;21.29;39.93
25855;BME280;13680;49.936;11.344;2022-07-29T00:50:26;96648.81;;;21.51;39.67
25855;BME280;13680;49.936;11.344;2022-07-29T00:52:52;96651.13;;;21.45;39.58
25855;BME280;13680;49.936;11.344;2022-07-29T00:55:18;96652.16;;;21.64;39.35
25855;BME280;13680;49.936;11.344;2022-07-29T00:57:44;96651.25;;;21.56;39.23
25855;BME280;13680;49.936;11.344;2022-07-29T01:00:14;96650.47;;;21.55;39.47
25855;BME280;13680;49.936;11.344;2022-07-29T01:02:40;96648.44;;;21.49;39.34
25855;BME280;13680;49.936;11.344;2022-07-29T01:05:06;96644.88;;;21.45;39.16
25855;BME280;13680;49.936;11.344;2022-07-29T01:07:34;96642.88;;;21.41;39.60
25855;BME280;13680;49.936;11.344;2022-07-29T01:10:01;96639.06;;;21.16;39.55
25855;BME280;13680;49.936;11.344;2022-07-29T01:12:28;96635.56;;;21.53;39.46
25855;BME280;13680;49.936;11.344;2022-07-29T01:14:58;96627.06;;;21.58;39.24
25855;BME280;13680;49.936;11.344;2022-07-29T01:17:28;96634.59;;;21.68;38.94
25855;BME280;13680;49.936;11.344;2022-07-29T01:20:13;96629.66;;;21.47;39.42
25855;BME280;13680;49.936;11.344;2022-07-29T01:25:32;96621.66;;;21.65;38.78
25855;BME280;13680;49.936;11.344;2022-07-29T01:30:55;96620.50;;;21.66;38.84
25855;BME280;13680;49.936;11.344;2022-07-29T01:33:24;96610.03;;;21.76;38.61
25855;BME280;13680;49.936;11.344;2022-07-29T01:36:17;96609.47;;;21.59;38.78
25855;BME280;13680;49.936;11.344;2022-07-29T01:38:46;96605.38;;;21.80;38.22
25855;BME280;13680;49.936;11.344;2022-07-29T01:41:17;96603.06;;;21.82;38.67
25855;BME280;13680;49.936;11.344;2022-07-29T01:43:51;96604.59;;;21.83;38.18
25855;BME280;13680;49.936;11.344;2022-07-29T01:46:52;96608.72;;;22.03;37.94
25855;BME280;13680;49.936;11.344;2022-07-29T01:49:27;96603.16;;;21.96;38.04
25855;BME280;13680;49.936;11.344;2022-07-29T01:52:00;96608.66;;;21.96;38.41
25855;BME280;13680;49.936;11.344;2022-07-29T01:54:39;96596.75;;;21.78;38.28
25855;BME280;13680;49.936;11.344;2022-07-29T01:57:09;96605.47;;;21.94;38.13
25855;BME280;13680;49.936;11.344;2022-07-29T01:59:37;96592.84;;;21.79;38.45
25855;BME280;13680;49.936;11.344;2022-07-29T02:02:02;96598.44;;;21.89;38.33
25855;BME280;13680;49.936;11.344;2022-07-29T02:04:31;96589.06;;;21.90;38.56
25855;BME280;13680;49.936;11.344;2022-07-29T02:07:01;96596.13;;;21.95;38.34
25855;BME280;13680;49.936;11.344;2022-07-29T02:09:28;96596.09;;;21.91;38.51
25855;BME280;13680;49.936;11.344;2022-07-29T02:11:55;96593.00;;;21.93;38.35
25855;BME280;13680;49.936;11.344;2022-07-29T02:14:23;96598.47;;;21.97;38.35
25855;BME280;13680;49.936;11.344;2022-07-29T02:16:52;96600.03;;;21.98;38.11
25855;BME280;13680;49.936;11.344;2022-07-29T02:19:19;96607.88;;;21.99;38.39
25855;BME280;13680;49.936;11.344;2022-07-29T02:21:46;96600.47;;;22.00;38.45
25855;BME280;13680;49.936;11.344;2022-07-29T02:24:14;96603.09;;;21.89;38.64
25855;BME280;13680;49.936;11.344;2022-07-29T02:26:41;96601.94;;;21.90;38.52
25855;BME280;13680;49.936;11.344;2022-07-29T02:29:08;96601.97;;;21.94;38.81
25855;BME280;13680;49.936;11.344;2022-07-29T02:31:35;96603.56;;;21.95;38.58
25855;BME280;13680;49.936;11.344;2022-07-29T02:34:06;96601.59;;;21.95;39.12
25855;BME280;13680;49.936;11.344;2022-07-29T02:36:32;96610.13;;;21.86;39.52
25855;BME280;13680;49.936;11.344;2022-07-29T02:38:59;96621.09;;;21.90;39.09
25855;BME280;13680;49.936;11.344;2022-07-29T02:41:49;96616.31;;;21.80;39.34
25855;BME280;13680;49.936;11.344;2022-07-29T02:44:18;96621.31;;;21.70;41.15
25855;BME280;13680;49.936;11.344;2022-07-29T02:47:36;96627.13;;;21.65;42.10
25855;BME280;13680;49.936;11.344;2022-07-29T02:50:29;96618.50;;;21.63;41.89
25855;BME280;13680;49.936;11.344;2022-07-29T02:52:57;96620.09;;;21.64;41.53
25855;BME280;13680;49.936;11.344;2022-07-29T02:55:27;96622.81;;;21.64;41.48
25855;BME280;13680;49.936;11.344;2022-07-29T02:58:00;96611.84;;;21.61;41.58
25855;BME280;13680;49.936;11.344;2022-07-29T03:00:31;96614.00;;;21.48;43.00
25855;BME280;13680;49.936;11.344;2022-07-29T03:03:00;96606.91;;;21.39;42.60
25855;BME280;13680;49.936;11.344;2022-07-29T03:05:27;96609.31;;;21.45;41.81
25855;BME280;13680;49.936;11.344;2022-07-29T03:07:58;96610.75;;;21.35;41.97
25855;BME280;13680;49.936;11.344;2022-07-29T03:10:26;96615.75;;;21.29;42.86
25855;BME280;13680;49.936;11.344;2022-07-29T03:12:51;96615.03;;;21.32;42.62
25855;BME280;13680;49.936;11.344;2022-07-29T03:15:18;96616.13;;;21.28;42.70
25855;BME280;13680;49.936;11.344;2022-07-29T03:17:44;96618.03;;;21.23;43.61
25855;BME280;13680;49.936;11.344;2022-07-29T03:20:10;96615.66;;;21.18;44.06
25855;BME280;13680;49.936;11.344;2022-07-29T03:22:39;96615.94;;;21.09;44.20
25855;BME280;13680;49.936;11.344;2022-07-29T03:25:09;96612.75;;;21.07;42.59
25855;BME280;13680;49.936;11.344;2022-07-29T03:27:35;96605.97;;;20.94;42.54
25855;BME280;13680;49.936;11.344;2022-07-29T03:30:00;96606.53;;;21.07;41.79
25855;BME280;13680;49.936;11.344;2022-07-29T03:32:25;96607.50;;;20.91;42.08
25855;BME280;13680;49.936;11.344;2022-07-29T03:34:51;96605.75;;;21.06;42.03
25855;BME280;13680;49.936;11.344;2022-07-29T03:37:16;96613.16;;;21.06;42.17
25855;BME280;13680;49.936;11.344;2022-07-29T03:39:42;96605.50;;;20.88;45.14
25855;BME280;13680;49.936;11.344;2022-07-29T03:42:11;96610.41;;;20.75;44.63
25855;BME280;13680;49.936;11.344;2022-07-29T03:44:41;96605.00;;;20.79;44.08
25855;BME280;13680;49.936;11.344;2022-07-29T03:47:08;96615.03;;;20.71;42.31
25855;BME280;13680;49.936;11.344;2022-07-29T03:49:36;96612.94;;;20.88;41.44
25855;BME280;13680;49.936;11.344;2022-07-29T03:52:03;96614.94;;;20.91;41.17
25855;BME280;13680;49.936;11.344;2022-07-29T03:54:29;96614.31;;;21.05;40.69
25855;BME280;13680;49.936;11.344;2022-07-29T03:56:55;96606.91;;;21.05;40.99
25855;BME280;13680;49.936;11.344;2022-07-29T03:59:25;96611.34;;;21.17;41.07
25855;BME280;13680;49.936;11.344;2022-07-29T04:01:52;96609.81;;;21.20;40.90
25855;BME280;13680;49.936;11.344;2022-07-29T04:04:18;96617.66;;;21.25;40.69
25855;BME280;13680;49.936;11.344;2022-07-29T04:06:45;96607.16;;;21.27;40.69
25855;BME280;13680;49.936;11.344;2022-07-29T04:09:11;96611.81;;;21.23;41.41
25855;BME280;13680;49.936;11.344;2022-07-29T04:11:41;96604.66;;;21.15;41.38
25855;BME280;13680;49.936;11.344;2022-07-29T04:14:07;96599.91;;;21.08;40.83
25855;BME280;13680;49.936;11.344;2022-07-29T04:16:32;96605.09;;;21.17;40.72
25855;BME280;13680;49.936;11.344;2022-07-29T04:18:58;96602.03;;;21.22;40.40
25855;BME280;13680;49.936;11.344;2022-07-29T04:21:23;96600.88;;;21.23;40.44
25855;BME280;13680;49.936;11.344;2022-07-29T04:23:49;96611.53;;;21.01;40.64
25855;BME280;13680;49.936;11.344;2022-07-29T04:26:19;96610.94;;;21.19;40.50
25855;BME280;13680;49.936;11.344;2022-07-29T04:28:44;96616.41;;;21.15;41.13
25855;BME280;13680;49.936;11.344;2022-07-29T04:31:10;96615.31;;;21.23;40.88
25855;BME280;13680;49.936;11.344;2022-07-29T04:33:36;96611.75;;;21.19;40.82
25855;BME280;13680;49.936;11.344;2022-07-29T04:36:02;96614.88;;;21.21;41.39
25855;BME280;13680;49.936;11.344;2022-07-29T04:38:28;96622.75;;;21.26;41.32
25855;BME280;13680;49.936;11.344;2022-07-29T04:40:53;96616.09;;;21.24;41.96
25855;BME280;13680;49.936;11.344;2022-07-29T04:43:19;96622.75;;;21.23;42.07
25855;BME280;13680;49.936;11.344;2022-07-29T04:45:44;96621.88;;;21.19;42.53
25855;BME280;13680;49.936;11.344;2022-07-29T04:48:10;96612.88;;;21.15;43.45
25855;BME280;13680;49.936;11.344;2022-07-29T04:50:38;96612.09;;;21.14;42.55
25855;BME280;13680;49.936;11.344;2022-07-29T04:53:03;96611.22;;;21.10;42.20
25855;BME280;13680;49.936;11.344;2022-07-29T04:55:29;96610.88;;;21.12;42.11
25855;BME280;13680;49.936;11.344;2022-07-29T04:57:54;96608.16;;;21.12;42.22
25855;BME280;13680;49.936;11.344;2022-07-29T05:00:19;96607.34;;;21.11;42.25
25855;BME280;13680;49.936;11.344;2022-07-29T05:02:45;96612.75;;;21.04;42.81
25855;BME280;13680;49.936;11.344;2022-07-29T05:05:10;96610.88;;;21.12;42.22
25855;BME280;13680;49.936;11.344;2022-07-29T05:07:36;96606.09;;;21.05;42.71
25855;BME280;13680;49.936;11.344;2022-07-29T05:10:01;96613.16;;;21.06;42.96
25855;BME280;13680;49.936;11.344;2022-07-29T05:12:26;96609.69;;;21.09;43.07
25855;BME280;13680;49.936;11.344;2022-07-29T05:14:53;96609.63;;;21.05;43.55
25855;BME280;13680;49.936;11.344;2022-07-29T05:17:18;96603.75;;;21.03;43.78
25855;BME280;13680;49.936;11.344;2022-07-29T05:19:44;96612.38;;;21.05;43.87
25855;BME280;13680;49.936;11.344;2022-07-29T05:22:09;96617.03;;;21.05;44.10
25855;BME280;13680;49.936;11.344;2022-07-29T05:24:34;96621.28;;;21.02;43.61
25855;BME280;13680;49.936;11.344;2022-07-29T05:26:59;96618.50;;;20.95;43.91
25855;BME280;13680;49.936;11.344;2022-07-29T05:29:25;96615.00;;;20.98;44.42
25855;BME280;13680;49.936;11.344;2022-07-29T05:31:51;96619.31;;;20.99;44.76
25855;BME280;13680;49.936;11.344;2022-07-29T05:34:18;96618.91;;;21.31;44.46
25855;BME280;13680;49.936;11.344;2022-07-29T05:36:44;96627.81;;;21.58;43.74
25855;BME280;13680;49.936;11.344;2022-07-29T05:39:10;96627.69;;;21.82;43.65
25855;BME280;13680;49.936;11.344;2022-07-29T05:41:35;96629.09;;;22.10;42.84
25855;BME280;13680;49.936;11.344;2022-07-29T05:44:01;96627.78;;;22.37;41.07
25855;BME280;13680;49.936;11.344;2022-07-29T05:46:27;96634.97;;;22.60;41.83
25855;BME280;13680;49.936;11.344;2022-07-29T05:48:52;96635.88;;;22.79;41.11
25855;BME280;13680;49.936;11.344;2022-07-29T05:51:18;96634.00;;;22.97;40.28
25855;BME280;13680;49.936;11.344;2022-07-29T05:53:43;96628.13;;;22.95;40.67
25855;BME280;13680;49.936;11.344;2022-07-29T05:56:09;96629.78;;;23.14;40.21
25855;BME280;13680;49.936;11.344;2022-07-29T05:58:35;96632.25;;;23.45;39.43
25855;BME280;13680;49.936;11.344;2022-07-29T06:01:01;96623.31;;;23.66;38.36
25855;BME280;13680;49.936;11.344;2022-07-29T06:03:27;96623.38;;;23.95;37.90
25855;BME280;13680;49.936;11.344;2022-07-29T06:05:52;96628.47;;;24.07;37.75
25855;BME280;13680;49.936;11.344;2022-07-29T06:08:19;96626.13;;;24.34;36.81
25855;BME280;13680;49.936;11.344;2022-07-29T06:10:45;96626.91;;;24.46;37.86
25855;BME280;13680;49.936;11.344;2022-07-29T06:13:11;96622.53;;;24.81;36.98
25855;BME280;13680;49.936;11.344;2022-07-29T06:15:37;96617.41;;;24.90;36.29
25855;BME280;13680;49.936;11.344;2022-07-29T06:18:02;96619.03;;;24.77;36.28
25855;BME280;13680;49.936;11.344;2022-07-29T06:20:29;96624.53;;;24.70;37.82
25855;BME280;13680;49.936;11.344;2022-07-29T06:22:55;96622.59;;;24.48;36.99
25855;BME280;13680;49.936;11.344;2022-07-29T06:25:21;96632.41;;;23.95;38.18
25855;BME280;13680;49.936;11.344;2022-07-29T06:27:46;96623.38;;;24.27;37.60
25855;BME280;13680;49.936;11.344;2022-07-29T06:30:12;96621.78;;;24.66;36.98
25855;BME280;13680;49.936;11.344;2022-07-29T06:32:37;96620.53;;;24.96;36.72
25855;BME280;13680;49.936;11.344;2022-07-29T06:35:03;96614.88;;;25.32;35.97
25855;BME280;13680;49.936;11.344;2022-07-29T06:37:28;96622.38;;;25.28;36.42
25855;BME280;13680;49.936;11.344;2022-07-29T06:39:54;96627.88;;;25.31;35.85
25855;BME280;13680;49.936;11.344;2022-07-29T06:42:42;96625.09;;;25.42;36.23
25855;BME280;13680;49.936;11.344;2022-07-29T06:45:07;96638.28;;;25.76;36.41
25855;BME280;13680;49.936;11.344;2022-07-29T06:47:33;96636.00;;;25.64;35.41
25855;BME280;13680;49.936;11.344;2022-07-29T06:49:59;96633.59;;;25.73;35.48
25855;BME280;13680;49.936;11.344;2022-07-29T06:52:25;96633.59;;;25.70;35.77
25855;BME280;13680;49.936;11.344;2022-07-29T06:54:50;96625.63;;;25.86;35.39
25855;BME280;13680;49.936;11.344;2022-07-29T06:57:16;96634.75;;;25.76;35.70
25855;BME280;13680;49.936;11.344;2022-07-29T06:59:41;96633.38;;;26.06;35.58
25855;BME280;13680;49.936;11.344;2022-07-29T07:02:06;96638.81;;;26.17;34.96
25855;BME280;13680;49.936;11.344;2022-07-29T07:04:32;96636.22;;;26.44;34.55
25855;BME280;13680;49.936;11.344;2022-07-29T07:06:57;96637.16;;;26.72;34.20
25855;BME280;13680;49.936;11.344;2022-07-29T07:09:24;96631.22;;;26.77;34.18
25855;BME280;13680;49.936;11.344;2022-07-29T07:11:49;96636.91;;;26.55;34.66
25855;BME280;13680;49.936;11.344;2022-07-29T07:14:14;96633.16;;;26.80;34.19
25855;BME280;13680;49.936;11.344;2022-07-29T07:16:40;96634.19;;;26.93;34.24
25855;BME280;13680;49.936;11.344;2022-07-29T07:19:05;96628.28;;;26.95;34.08
25855;BME280;13680;49.936;11.344;2022-07-29T07:21:32;96636.84;;;26.62;34.94
25855;BME280;13680;49.936;11.344;2022-07-29T07:23:58;96639.72;;;26.48;35.21
25855;BME280;13680;49.936;11.344;2022-07-29T07:26:24;96640.16;;;26.88;34.56
25855;BME280;13680;49.936;11.344;2022-07-29T07:28:50;96644.28;;;26.69;34.40
25855;BME280;13680;49.936;11.344;2022-07-29T07:31:15;96643.00;;;26.81;34.08
25855;BME280;13680;49.936;11.344;2022-07-29T07:33:41;96644.69;;;26.68;33.66
25855;BME280;13680;49.936;11.344;2022-07-29T07:36:06;96638.72;;;27.11;33.71
25855;BME280;13680;49.936;11.344;2022-07-29T07:38:31;96639.72;;;26.93;33.83
25855;BME280;13680;49.936;11.344;2022-07-29T07:40:57;96633.19;;;27.11;33.89
25855;BME280;13680;49.936;11.344;2022-07-29T07:43:22;96632.22;;;27.28;33.81
25855;BME280;13680;49.936;11.344;2022-07-29T07:45:47;96639.91;;;27.75;32.36
25855;BME280;13680;49.936;11.344;2022-07-29T07:48:13;96635.22;;;27.41;33.06
25855;BME280;13680;49.936;11.344;2022-07-29T07:50:38;96643.13;;;27.43;32.99
25855;BME280;13680;49.936;11.344;2022-07-29T07:53:03;96640.06;;;27.30;33.28
25855;BME280;13680;49.936;11.344;2022-07-29T07:55:29;96641.34;;;27.56;33.14
25855;BME280;13680;49.936;11.344;2022-07-29T07:57:54;96631.34;;;27.93;32.45
25855;BME280;13680;49.936;11.344;2022-07-29T08:00:21;96628.72;;;28.37;32.12
25855;BME280;13680;49.936;11.344;2022-07-29T08:02:46;96631.09;;;28.12;32.57
25855;BME280;13680;49.936;11.344;2022-07-29T08:05:12;96632.06;;;27.98;32.99
25855;BME280;13680;49.936;11.344;2022-07-29T08:07:43;96618.19;;;28.05;33.05
25855;BME280;13680;49.936;11.344;2022-07-29T08:10:08;96625.28;;;28.06;33.32
25855;BME280;13680;49.936;11.344;2022-07-29T08:12:34;96619.47;;;28.24;32.67
25855;BME280;13680;49.936;11.344;2022-07-29T08:14:59;96613.50;;;28.25;33.94
25855;BME280;13680;49.936;11.344;2022-07-29T08:17:25;96610.75;;;28.93;31.66
25855;BME280;13680;49.936;11.344;2022-07-29T08:19:51;96604.69;;;28.98;32.02
25855;BME280;13680;49.936;11.344;2022-07-29T08:22:17;96611.53;;;29.34;31.48
25855;BME280;13680;49.936;11.344;2022-07-29T08:24:42;96614.06;;;29.25;32.42
25855;BME280;13680;49.936;11.344;2022-07-29T08:27:08;96611.53;;;29.70;31.43
25855;BME280;13680;49.936;11.344;2022-07-29T08:29:34;96618.94;;;29.57;31.57
25855;BME280;13680;49.936;11.344;2022-07-29T08:31:59;96616.28;;;29.70;31.21
25855;BME280;13680;49.936;11.344;2022-07-29T08:34:25;96618.88;;;29.61;31.31
25855;BME280;13680;49.936;11.344;2022-07-29T08:36:50;96617.75;;;29.95;31.24
25855;BME280;13680;49.936;11.344;2022-07-29T08:39:16;96618.81;;;30.80;29.83
25855;BME280;13680;49.936;11.344;2022-07-29T08:41:42;96614.69;;;30.55;30.32
25855;BME280;13680;49.936;11.344;2022-07-29T08:44:08;96614.97;;;30.44;30.43
25855;BME280;13680;49.936;11.344;2022-07-29T08:46:37;96622.00;;;30.49;30.43
25855;BME280;13680;49.936;11.344;2022-07-29T08:49:03;96615.75;;;30.91;29.39
25855;BME280;13680;49.936;11.344;2022-07-29T08:51:29;96619.06;;;30.85;30.47
25855;BME280;13680;49.936;11.344;2022-07-29T08:53:55;96619.44;;;31.00;30.16
25855;BME280;13680;49.936;11.344;2022-07-29T08:56:21;96620.81;;;30.79;31.19
25855;BME280;13680;49.936;11.344;2022-07-29T08:58:48;96622.53;;;31.32;30.02
25855;BME280;13680;49.936;11.344;2022-07-29T09:01:16;96619.78;;;31.45;29.47
25855;BME280;13680;49.936;11.344;2022-07-29T09:03:44;96614.91;;;31.36;29.91
25855;BME280;13680;49.936;11.344;2022-07-29T09:06:13;96616.28;;;30.85;30.71
25855;BME280;13680;49.936;11.344;2022-07-29T09:08:39;96612.50;;;30.46;31.16
25855;BME280;13680;49.936;11.344;2022-07-29T09:11:05;96606.91;;;30.50;31.09
25855;BME280;13680;49.936;11.344;2022-07-29T09:13:32;96598.22;;;31.23;29.75
25855;BME280;13680;49.936;11.344;2022-07-29T09:15:57;96601.84;;;31.20;30.43
25855;BME280;13680;49.936;11.344;2022-07-29T09:18:40;96606.84;;;31.12;30.08
25855;BME280;13680;49.936;11.344;2022-07-29T09:21:07;96603.88;;;31.20;30.23
25855;BME280;13680;49.936;11.344;2022-07-29T09:24:11;96595.03;;;31.76;29.23
25855;BME280;13680;49.936;11.344;2022-07-29T09:26:45;96591.38;;;32.18;29.81
25855;BME280;13680;49.936;11.344;2022-07-29T09:29:13;96593.38;;;31.92;30.01
25855;BME280;13680;49.936;11.344;2022-07-29T09:31:45;96588.94;;;31.81;29.39
25855;BME280;13680;49.936;11.344;2022-07-29T09:34:14;96593.50;;;31.75;29.99
25855;BME280;13680;49.936;11.344;2022-07-29T09:36:40;96584.34;;;32.01;29.05
25855;BME280;13680;49.936;11.344;2022-07-29T09:39:06;96582.03;;;32.60;28.34
25855;BME280;13680;49.936;11.344;2022-07-29T09:41:47;96579.63;;;32.36;29.01
25855;BME280;13680;49.936;11.344;2022-07-29T09:44:13;96583.81;;;30.99;30.47
25855;BME280;13680;49.936;11.344;2022-07-29T09:46:40;96578.09;;;31.32;30.60
25855;BME280;13680;49.936;11.344;2022-07-29T09:49:16;96576.19;;;31.16;30.74
25855;BME280;13680;49.936;11.344;2022-07-29T09:51:42;96573.53;;;31.38;30.12
25855;BME280;13680;49.936;11.344;2022-07-29T09:54:23;96573.53;;;31.25;30.79
25855;BME280;13680;49.936;11.344;2022-07-29T09:56:49;96586.47;;;30.73;31.55
25855;BME280;13680;49.936;11.344;2022-07-29T09:59:15;96578.50;;;30.75;31.63
25855;BME280;13680;49.936;11.344;2022-07-29T10:01:40;96587.97;;;30.91;31.24
25855;BME280;13680;49.936;11.344;2022-07-29T10:04:05;96592.44;;;31.43;30.49
25855;BME280;13680;49.936;11.344;2022-07-29T10:06:31;96583.06;;;31.79;30.26
25855;BME280;13680;49.936;11.344;2022-07-29T10:09:10;96584.56;;;31.55;30.91
25855;BME280;13680;49.936;11.344;2022-07-29T10:11:36;96573.16;;;32.39;29.03
25855;BME280;13680;49.936;11.344;2022-07-29T10:14:03;96568.16;;;32.47;28.83
25855;BME280;13680;49.936;11.344;2022-07-29T10:16:29;96569.91;;;31.80;30.10
25855;BME280;13680;49.936;11.344;2022-07-29T10:18:58;96562.78;;;31.40;30.91
25855;BME280;13680;49.936;11.344;2022-07-29T10:21:25;96565.66;;;31.49;31.06
25855;BME280;13680;49.936;11.344;2022-07-29T10:23:52;96569.47;;;31.00;31.63
25855;BME280;13680;49.936;11.344;2022-07-29T10:26:17;96570.22;;;31.43;31.65
25855;BME280;13680;49.936;11.344;2022-07-29T10:28:44;96569.78;;;31.02;31.11
25855;BME280;13680;49.936;11.344;2022-07-29T10:31:31;96559.00;;;31.86;30.05
25855;BME280;13680;49.936;11.344;2022-07-29T10:34:09;96555.97;;;32.54;29.48
25855;BME280;13680;49.936;11.344;2022-07-29T10:36:59;96560.84;;;32.62;28.82
25855;BME280;13680;49.936;11.344;2022-07-29T10:42:13;96549.28;;;33.08;28.55
25855;BME280;13680;49.936;11.344;2022-07-29T10:44:42;96558.66;;;33.55;27.78
25855;BME280;13680;49.936;11.344;2022-07-29T10:47:19;96545.72;;;33.71;27.51
25855;BME280;13680;49.936;11.344;2022-07-29T10:49:55;96551.41;;;34.17;26.94
25855;BME280;13680;49.936;11.344;2022-07-29T10:52:21;96549.44;;;34.46;27.12
25855;BME280;13680;49.936;11.344;2022-07-29T10:54:49;96537.31;;;34.77;25.76
25855;BME280;13680;49.936;11.344;2022-07-29T10:57:25;96546.31;;;35.09;26.09
25855;BME280;13680;49.936;11.344;2022-07-29T11:05:18;96537.00;;;35.12;26.02
25855;BME280;13680;49.936;11.344;2022-07-29T11:08:17;96536.25;;;34.93;26.68
25855;BME280;13680;49.936;11.344;2022-07-29T11:10:45;96529.53;;;35.18;25.91
25855;BME280;13680;49.936;11.344;2022-07-29T11:13:11;96538.56;;;34.94;25.53
25855;BME280;13680;49.936;11.344;2022-07-29T11:15:53;96537.31;;;33.61;27.65
25855;BME280;13680;49.936;11.344;2022-07-29T11:18:19;96541.75;;;33.81;27.56
25855;BME280;13680;49.936;11.344;2022-07-29T11:20:47;96538.25;;;33.05;29.06
25855;BME280;13680;49.936;11.344;2022-07-29T11:23:31;96538.91;;;33.09;28.56
25855;BME280;13680;49.936;11.344;2022-07-29T11:28:39;96569.00;;;30.60;31.07
25855;BME280;13680;49.936;11.344;2022-07-29T11:31:09;96562.56;;;30.63;32.02
25855;BME280;13680;49.936;11.344;2022-07-29T11:33:35;96542.00;;;29.98;32.67
25855;BME280;13680;49.936;11.344;2022-07-29T11:36:08;96554.69;;;29.62;33.39
25855;BME280;13680;49.936;11.344;2022-07-29T11:38:35;96547.81;;;28.77;35.98
25855;BME280;13680;49.936;11.344;2022-07-29T11:41:26;96551.72;;;28.80;36.03
25855;BME280;13680;49.936;11.344;2022-07-29T11:43:53;96552.50;;;28.56;36.94
25855;BME280;13680;49.936;11.344;2022-07-29T11:46:48;96546.81;;;28.44;37.37
25855;BME280;13680;49.936;11.344;2022-07-29T11:49:22;96540.63;;;27.88;38.47
25855;BME280;13680;49.936;11.344;2022-07-29T11:51:56;96545.06;;;27.58;39.18
25855;BME280;13680;49.936;11.344;2022-07-29T11:54:24;96550.16;;;27.60;39.74
25855;BME280;13680;49.936;11.344;2022-07-29T11:56:52;96564.66;;;27.06;40.83
25855;BME280;13680;49.936;11.344;2022-07-29T11:59:17;96559.44;;;27.15;40.50
25855;BME280;13680;49.936;11.344;2022-07-29T12:01:54;96564.91;;;27.50;42.15
25855;BME280;13680;49.936;11.344;2022-07-29T12:04:20;96563.44;;;27.92;44.17
25855;BME280;13680;49.936;11.344;2022-07-29T12:06:52;96572.78;;;27.51;46.88
25855;BME280;13680;49.936;11.344;2022-07-29T12:09:18;96586.72;;;27.06;50.04
25855;BME280;13680;49.936;11.344;2022-07-29T12:11:43;96592.97;;;26.37;51.60
25855;BME280;13680;49.936;11.344;2022-07-29T12:14:09;96576.69;;;26.01;55.68
25855;BME280;13680;49.936;11.344;2022-07-29T12:16:35;96584.50;;;26.13;57.57
25855;BME280;13680;49.936;11.344;2022-07-29T12:19:03;96581.56;;;25.86;60.52
25855;BME280;13680;49.936;11.344;2022-07-29T12:21:50;96581.78;;;25.50;60.79
25855;BME280;13680;49.936;11.344;2022-07-29T12:24:15;96588.16;;;25.32;60.94
25855;BME280;13680;49.936;11.344;2022-07-29T12:26:55;96586.56;;;25.39;60.38
25855;BME280;13680;49.936;11.344;2022-07-29T12:29:21;96590.53;;;25.38;62.20
25855;BME280;13680;49.936;11.344;2022-07-29T12:31:51;96595.22;;;25.33;64.57
25855;BME280;13680;49.936;11.344;2022-07-29T12:34:20;96588.19;;;25.25;63.43
25855;BME280;13680;49.936;11.344;2022-07-29T12:36:48;96577.16;;;25.36;62.59
25855;BME280;13680;49.936;11.344;2022-07-29T12:39:15;96582.22;;;25.41;64.46
25855;BME280;13680;49.936;11.344;2022-07-29T12:41:41;96586.03;;;24.77;69.37
25855;BME280;13680;49.936;11.344;2022-07-29T12:44:06;96582.13;;;24.56;67.76
25855;BME280;13680;49.936;11.344;2022-07-29T12:46:32;96590.69;;;24.98;65.73
25855;BME280;13680;49.936;11.344;2022-07-29T12:48:57;96583.63;;;25.71;62.52
25855;BME280;13680;49.936;11.344;2022-07-29T12:51:35;96602.06;;;25.81;65.00
25855;BME280;13680;49.936;11.344;2022-07-29T12:54:08;96612.44;;;25.56;63.02
25855;BME280;13680;49.936;11.344;2022-07-29T12:56:37;96609.88;;;25.16;61.45
25855;BME280;13680;49.936;11.344;2022-07-29T12:59:17;96602.13;;;25.71;60.38
25855;BME280;13680;49.936;11.344;2022-07-29T13:01:44;96589.16;;;25.68;56.28
25855;BME280;13680;49.936;11.344;2022-07-29T13:04:10;96597.84;;;25.62;58.65
25855;BME280;13680;49.936;11.344;2022-07-29T13:06:44;96594.31;;;25.62;58.26
25855;BME280;13680;49.936;11.344;2022-07-29T13:09:16;96588.44;;;25.56;58.70
25855;BME280;13680;49.936;11.344;2022-07-29T13:11:44;96588.97;;;25.96;58.25
25855;BME280;13680;49.936;11.344;2022-07-29T13:14:13;96575.00;;;25.65;59.95